createdAt,value
2018-03-21T00:00:42.585Z,101895
2018-03-21T00:03:10.731Z,101899
2018-03-21T00:05:38.863Z,101893
2018-03-21T00:08:07.032Z,101900
2018-03-21T00:10:35.162Z,101911
2018-03-21T00:13:03.302Z,101905
2018-03-21T00:15:32.640Z,101909
2018-03-21T00:18:00.810Z,101918
2018-03-21T00:20:28.955Z,101917
2018-03-21T00:22:57.733Z,101916
2018-03-21T00:25:26.657Z,101919
2018-03-21T00:27:54.802Z,101916
2018-03-21T00:30:22.976Z,101912
2018-03-21T00:32:51.122Z,101913
2018-03-21T00:35:19.264Z,101915
2018-03-21T00:37:47.443Z,101929
2018-03-21T00:40:15.573Z,101927
2018-03-21T00:42:43.751Z,101931
2018-03-21T00:45:12.863Z,101923
2018-03-21T00:47:40.998Z,101926
2018-03-21T00:50:09.902Z,101932
2018-03-21T00:52:38.052Z,101925
2018-03-21T00:55:06.367Z,101929
2018-03-21T00:57:34.528Z,101939
2018-03-21T01:00:02.674Z,101936
2018-03-21T01:02:31.637Z,101939
2018-03-21T01:04:59.775Z,101938
2018-03-21T01:07:27.910Z,101943
2018-03-21T01:09:56.840Z,101946
2018-03-21T01:12:24.981Z,101945
2018-03-21T01:14:53.885Z,101949
2018-03-21T01:17:22.047Z,101950
2018-03-21T01:19:50.949Z,101950
2018-03-21T01:22:19.095Z,101957
2018-03-21T01:24:48.043Z,101959
2018-03-21T01:27:16.199Z,101963
2018-03-21T01:29:44.333Z,101957
2018-03-21T01:32:13.266Z,101967
2018-03-21T01:34:41.849Z,101964
2018-03-21T01:37:10.026Z,101953
2018-03-21T01:39:38.206Z,101965
2018-03-21T01:42:06.341Z,101958
2018-03-21T01:44:34.508Z,101958
2018-03-21T01:47:03.418Z,101968
2018-03-21T01:49:31.554Z,101971
2018-03-21T01:52:00.594Z,101965
2018-03-21T01:54:28.730Z,101964
2018-03-21T01:59:55.326Z,101974
2018-03-21T02:02:23.492Z,101977
2018-03-21T02:04:51.625Z,101979
2018-03-21T02:07:20.536Z,101975
2018-03-21T02:09:48.711Z,101983
2018-03-21T02:12:16.859Z,101985
2018-03-21T02:14:45.761Z,101979
2018-03-21T02:17:14.655Z,101980
2018-03-21T02:19:43.295Z,101987
2018-03-21T02:22:11.428Z,101979
2018-03-21T02:24:39.710Z,101964
2018-03-21T02:27:07.839Z,101979
2018-03-21T02:29:36.727Z,101985
2018-03-21T02:32:05.640Z,101980
2018-03-21T02:34:33.763Z,101981
2018-03-21T02:37:01.903Z,101987
2018-03-21T02:39:30.060Z,101986
2018-03-21T02:41:58.197Z,101984
2018-03-21T02:44:26.320Z,101980
2018-03-21T02:46:54.468Z,101982
2018-03-21T02:49:22.611Z,101992
2018-03-21T02:51:50.755Z,101979
2018-03-21T02:54:18.884Z,101987
2018-03-21T02:56:47.968Z,101986
2018-03-21T02:59:16.902Z,101994
2018-03-21T03:01:45.028Z,101976
2018-03-21T03:04:13.939Z,101977
2018-03-21T03:06:42.064Z,101983
2018-03-21T03:09:10.207Z,101979
2018-03-21T03:11:38.352Z,101981
2018-03-21T03:14:06.540Z,101988
2018-03-21T03:16:34.659Z,101991
2018-03-21T03:19:03.433Z,101978
2018-03-21T03:21:31.577Z,101984
2018-03-21T03:23:59.707Z,101972
2018-03-21T03:26:28.739Z,101988
2018-03-21T03:28:56.907Z,101988
2018-03-21T03:31:25.057Z,101983
2018-03-21T03:33:53.959Z,101988
2018-03-21T03:36:22.956Z,101992
2018-03-21T03:38:51.111Z,101988
2018-03-21T03:41:19.999Z,101989
2018-03-21T03:43:48.907Z,101985
2018-03-21T03:46:17.083Z,101990
2018-03-21T03:48:45.203Z,101993
2018-03-21T03:51:13.427Z,101990
2018-03-21T03:53:41.551Z,101997
2018-03-21T03:56:09.673Z,101989
2018-03-21T03:58:37.822Z,101986
2018-03-21T04:01:06.719Z,101989
2018-03-21T04:03:34.906Z,101981
2018-03-21T04:06:03.071Z,101988
2018-03-21T04:08:31.200Z,101993
2018-03-21T04:10:59.324Z,101990
2018-03-21T04:13:27.495Z,101994
2018-03-21T04:15:55.626Z,101993
2018-03-21T04:18:23.755Z,101992
2018-03-21T04:20:51.899Z,101995
2018-03-21T04:23:20.039Z,101996
2018-03-21T04:25:48.156Z,101997
2018-03-21T04:28:16.293Z,101995
2018-03-21T04:30:45.213Z,101999
2018-03-21T04:33:13.396Z,101994
2018-03-21T04:35:41.519Z,101991
2018-03-21T04:38:09.664Z,101998
2018-03-21T04:40:37.788Z,101987
2018-03-21T04:43:06.708Z,101997
2018-03-21T04:45:34.831Z,101982
2018-03-21T04:48:02.980Z,101989
2018-03-21T04:50:31.120Z,101991
2018-03-21T04:52:59.259Z,101985
2018-03-21T04:55:28.152Z,101981
2018-03-21T04:57:57.077Z,101985
2018-03-21T05:00:25.215Z,101991
2018-03-21T05:02:54.136Z,101993
2018-03-21T05:05:22.279Z,101998
2018-03-21T05:07:51.177Z,101998
2018-03-21T05:10:19.331Z,102001
2018-03-21T05:12:48.251Z,101988
2018-03-21T05:15:16.380Z,101989
2018-03-21T05:17:44.908Z,101991
2018-03-21T05:20:13.055Z,101992
2018-03-21T05:22:41.947Z,101999
2018-03-21T05:25:11.064Z,101994
2018-03-21T05:27:39.279Z,102004
2018-03-21T05:30:07.460Z,102004
2018-03-21T05:32:35.691Z,102008
2018-03-21T05:35:03.828Z,102000
2018-03-21T05:37:32.742Z,102003
2018-03-21T05:40:00.892Z,102003
2018-03-21T05:42:29.810Z,102009
2018-03-21T05:44:57.941Z,102001
2018-03-21T05:47:26.156Z,102018
2018-03-21T05:49:54.315Z,102007
2018-03-21T05:52:22.448Z,102004
2018-03-21T05:54:50.582Z,102002
2018-03-21T05:57:18.739Z,101996
2018-03-21T05:59:46.880Z,102002
2018-03-21T06:02:15.006Z,102010
2018-03-21T06:04:43.153Z,102011
2018-03-21T06:07:11.302Z,102015
2018-03-21T06:09:40.191Z,102008
2018-03-21T06:12:09.123Z,102012
2018-03-21T06:14:37.687Z,102011
2018-03-21T06:17:05.826Z,102000
2018-03-21T06:19:33.939Z,102006
2018-03-21T06:22:02.059Z,102011
2018-03-21T06:24:30.200Z,101998
2018-03-21T06:26:58.316Z,102010
2018-03-21T06:29:26.454Z,102009
2018-03-21T06:31:54.571Z,102021
2018-03-21T06:34:24.057Z,102012
2018-03-21T06:36:52.976Z,102016
2018-03-21T06:39:21.860Z,102022
2018-03-21T06:41:50.773Z,102025
2018-03-21T06:44:18.891Z,102030
2018-03-21T06:46:47.056Z,102021
2018-03-21T06:49:15.175Z,102024
2018-03-21T06:51:43.369Z,102021
2018-03-21T06:54:11.503Z,102022
2018-03-21T06:56:40.389Z,102020
2018-03-21T06:59:09.291Z,102025
2018-03-21T07:01:38.180Z,102024
2018-03-21T07:04:07.103Z,102027
2018-03-21T07:06:35.229Z,102035
2018-03-21T07:09:04.115Z,102046
2018-03-21T07:11:32.974Z,102041
2018-03-21T07:14:19.010Z,102043
2018-03-21T07:16:47.928Z,102050
2018-03-21T07:19:16.044Z,102044
2018-03-21T07:21:44.189Z,102053
2018-03-21T07:24:12.307Z,102044
2018-03-21T07:26:41.217Z,102042
2018-03-21T07:29:09.356Z,102055
2018-03-21T07:31:37.481Z,102055
2018-03-21T07:34:05.620Z,102055
2018-03-21T07:36:34.504Z,102050
2018-03-21T07:39:02.735Z,102060
2018-03-21T07:41:31.575Z,102049
2018-03-21T07:44:00.463Z,102051
2018-03-21T07:46:29.368Z,102049
2018-03-21T07:48:57.488Z,102048
2018-03-21T07:51:25.635Z,102045
2018-03-21T07:53:53.754Z,102048
2018-03-21T07:56:21.872Z,102050
2018-03-21T07:58:50.044Z,102046
2018-03-21T08:01:18.182Z,102053
2018-03-21T08:03:47.063Z,102056
2018-03-21T08:06:15.217Z,102056
2018-03-21T08:08:43.356Z,102055
2018-03-21T08:11:11.500Z,102055
2018-03-21T08:13:40.469Z,102059
2018-03-21T08:16:08.626Z,102056
2018-03-21T08:18:36.775Z,102056
2018-03-21T08:21:04.924Z,102059
2018-03-21T08:23:33.144Z,102063
2018-03-21T08:26:01.278Z,102055
2018-03-21T08:28:29.448Z,102065
2018-03-21T08:30:57.602Z,102066
2018-03-21T08:33:26.484Z,102065
2018-03-21T08:35:55.404Z,102072
2018-03-21T08:38:23.520Z,102069
2018-03-21T08:40:51.644Z,102078
2018-03-21T08:43:19.804Z,102073
2018-03-21T08:45:47.923Z,102060
2018-03-21T08:48:16.065Z,102056
2018-03-21T08:50:44.233Z,102049
2018-03-21T08:53:12.365Z,102060
2018-03-21T08:55:40.512Z,102050
2018-03-21T08:58:08.638Z,102053
2018-03-21T09:00:36.776Z,102057
2018-03-21T09:03:04.911Z,102056
2018-03-21T09:05:33.034Z,102045
2018-03-21T09:08:02.043Z,102043
2018-03-21T09:10:30.163Z,102049
2018-03-21T09:12:58.454Z,102030
2018-03-21T09:15:26.580Z,102032
2018-03-21T09:17:54.717Z,102044
2018-03-21T09:20:23.604Z,102043
2018-03-21T09:22:52.515Z,102045
2018-03-21T09:25:20.635Z,102031
2018-03-21T09:27:48.756Z,102034
2018-03-21T09:30:16.899Z,102038
2018-03-21T09:32:45.024Z,102039
2018-03-21T09:35:13.499Z,102033
2018-03-21T09:37:41.647Z,102027
2018-03-21T09:40:11.014Z,102038
2018-03-21T09:42:39.248Z,102032
2018-03-21T09:45:07.393Z,102029
2018-03-21T09:47:35.521Z,102025
2018-03-21T09:50:03.649Z,102026
2018-03-21T09:52:32.601Z,102011
2018-03-21T09:55:00.724Z,102008
2018-03-21T09:57:28.863Z,102015
2018-03-21T09:59:57.880Z,102011
2018-03-21T10:02:26.055Z,102013
2018-03-21T10:04:54.189Z,102007
2018-03-21T10:07:23.103Z,102009
2018-03-21T10:09:51.415Z,102004
2018-03-21T10:12:19.544Z,102003
2018-03-21T10:14:47.699Z,102007
2018-03-21T10:17:15.832Z,101999
2018-03-21T10:19:43.963Z,101989
2018-03-21T10:22:12.128Z,101996
2018-03-21T10:24:41.015Z,101989
2018-03-21T10:27:10.032Z,101985
2018-03-21T10:29:38.147Z,101998
2018-03-21T10:32:06.265Z,101986
2018-03-21T10:34:34.419Z,101997
2018-03-21T10:37:03.319Z,101996
2018-03-21T10:39:31.552Z,101991
2018-03-21T10:41:59.688Z,101987
2018-03-21T10:44:27.830Z,101994
2018-03-21T10:46:56.752Z,101993
2018-03-21T10:49:24.867Z,101988
2018-03-21T10:51:53.096Z,101983
2018-03-21T10:54:21.244Z,101980
2018-03-21T10:56:50.123Z,101976
2018-03-21T10:59:19.058Z,101984
2018-03-21T11:01:47.203Z,101993
2018-03-21T11:04:15.352Z,101988
2018-03-21T11:06:43.503Z,101990
2018-03-21T11:09:11.839Z,101984
2018-03-21T11:11:40.041Z,101994
2018-03-21T11:14:08.912Z,101980
2018-03-21T11:16:37.077Z,101983
2018-03-21T11:19:05.210Z,101977
2018-03-21T11:21:34.136Z,101979
2018-03-21T11:24:02.300Z,101971
2018-03-21T11:26:30.427Z,101992
2018-03-21T11:28:58.559Z,101972
2018-03-21T11:31:26.702Z,101975
2018-03-21T11:33:55.620Z,101966
2018-03-21T11:36:24.284Z,101975
2018-03-21T11:38:53.175Z,101983
2018-03-21T11:41:21.999Z,101964
2018-03-21T11:43:50.188Z,101970
2018-03-21T11:46:18.336Z,101965
2018-03-21T11:48:46.488Z,101974
2018-03-21T11:51:15.195Z,101963
2018-03-21T11:53:44.172Z,101963
2018-03-21T11:56:13.327Z,101962
2018-03-21T11:58:41.455Z,101953
2018-03-21T12:01:09.624Z,101953
2018-03-21T12:03:37.767Z,101952
2018-03-21T12:06:06.663Z,101948
2018-03-21T12:08:35.286Z,101942
2018-03-21T12:11:04.873Z,101945
2018-03-21T12:13:33.010Z,101942
2018-03-21T12:16:02.547Z,101953
2018-03-21T12:18:31.332Z,101953
2018-03-21T12:20:59.443Z,101940
2018-03-21T12:23:27.559Z,101938
2018-03-21T12:25:56.499Z,101933
2018-03-21T12:28:24.637Z,101939
2018-03-21T12:30:52.759Z,101938
2018-03-21T12:33:20.989Z,101930
2018-03-21T12:35:50.587Z,101939
2018-03-21T12:38:18.727Z,101928
2018-03-21T12:40:47.624Z,101925
2018-03-21T12:43:16.542Z,101916
2018-03-21T12:45:44.664Z,101917
2018-03-21T12:48:12.893Z,101921
2018-03-21T12:50:41.036Z,101920
2018-03-21T12:53:09.951Z,101923
2018-03-21T12:55:38.135Z,101927
2018-03-21T12:58:06.976Z,101918
2018-03-21T13:00:35.122Z,101926
2018-03-21T13:03:03.252Z,101928
2018-03-21T13:05:31.399Z,101940
2018-03-21T13:08:00.287Z,101927
2018-03-21T13:10:29.191Z,101917
2018-03-21T13:12:58.128Z,101915
2018-03-21T13:15:26.276Z,101909
2018-03-21T13:17:54.409Z,101902
2018-03-21T13:20:22.533Z,101910
2018-03-21T13:22:50.672Z,101917
2018-03-21T13:25:19.555Z,101908
2018-03-21T13:27:47.718Z,101896
2018-03-21T13:30:16.753Z,101898
2018-03-21T13:32:44.899Z,101901
2018-03-21T13:35:13.815Z,101909
2018-03-21T13:37:41.937Z,101899
2018-03-21T13:40:10.149Z,101910
2018-03-21T13:42:38.355Z,101903
2018-03-21T13:45:06.475Z,101903
2018-03-21T13:47:34.602Z,101904
2018-03-21T13:50:02.735Z,101907
2018-03-21T13:52:30.919Z,101904
2018-03-21T13:54:59.812Z,101920
2018-03-21T13:57:27.932Z,101905
2018-03-21T13:59:56.080Z,101905
2018-03-21T14:02:24.377Z,101916
2018-03-21T14:04:52.539Z,101926
2018-03-21T14:07:20.660Z,101909
2018-03-21T14:09:48.779Z,101901
2018-03-21T14:12:16.916Z,101911
2018-03-21T14:14:45.086Z,101891
2018-03-21T14:17:13.228Z,101897
2018-03-21T14:19:42.110Z,101898
2018-03-21T14:22:11.615Z,101897
2018-03-21T14:24:41.108Z,101892
2018-03-21T14:27:10.583Z,101888
2018-03-21T14:29:40.080Z,101893
2018-03-21T14:32:09.568Z,101882
2018-03-21T14:34:39.077Z,101877
2018-03-21T14:37:08.563Z,101870
2018-03-21T14:39:38.038Z,101873
2018-03-21T14:42:07.540Z,101872
2018-03-21T14:44:37.020Z,101865
2018-03-21T14:47:07.016Z,101869
2018-03-21T14:49:36.523Z,101861
2018-03-21T14:52:06.015Z,101856
2018-03-21T14:54:36.233Z,101855
2018-03-21T14:57:05.711Z,101836
2018-03-21T14:59:35.415Z,101869
2018-03-21T15:02:04.899Z,101838
2018-03-21T15:04:34.416Z,101835
2018-03-21T15:07:03.899Z,101834
2018-03-21T15:09:33.378Z,101825
2018-03-21T15:12:02.891Z,101821
2018-03-21T15:14:32.375Z,101833
2018-03-21T15:17:01.889Z,101820
2018-03-21T15:19:31.383Z,101823
2018-03-21T15:22:00.889Z,101821
2018-03-21T15:24:30.371Z,101821
2018-03-21T15:26:59.870Z,101819
2018-03-21T15:29:29.367Z,101826
2018-03-21T15:31:58.379Z,101824
2018-03-21T15:34:26.494Z,101811
2018-03-21T15:36:54.623Z,101808
2018-03-21T15:39:22.811Z,101810
2018-03-21T15:41:50.949Z,101807
2018-03-21T15:44:19.088Z,101805
2018-03-21T15:46:47.315Z,101810
2018-03-21T15:49:15.459Z,101816
2018-03-21T15:51:44.372Z,101806
2018-03-21T15:54:12.495Z,101797
2018-03-21T15:56:40.655Z,101799
2018-03-21T15:59:08.776Z,101809
2018-03-21T16:01:36.903Z,101803
2018-03-21T16:04:05.135Z,101812
2018-03-21T16:06:33.759Z,101807
2018-03-21T16:09:01.901Z,101819
2018-03-21T16:11:30.027Z,101799
2018-03-21T16:13:58.167Z,101804
2018-03-21T16:16:26.324Z,101822
2018-03-21T16:18:54.450Z,101797
2018-03-21T16:21:23.360Z,101811
2018-03-21T16:23:51.480Z,101809
2018-03-21T16:26:19.624Z,101806
2018-03-21T16:28:47.744Z,101804
2018-03-21T16:31:15.887Z,101798
2018-03-21T16:33:44.031Z,101807
2018-03-21T16:36:12.183Z,101793
2018-03-21T16:38:40.316Z,101803
2018-03-21T16:41:08.438Z,101807
2018-03-21T16:43:36.591Z,101800
2018-03-21T16:46:05.484Z,101797
2018-03-21T16:48:34.380Z,101802
2018-03-21T16:51:03.292Z,101801
2018-03-21T16:53:31.411Z,101799
2018-03-21T16:55:59.527Z,101798
2018-03-21T16:58:27.720Z,101804
2018-03-21T17:00:55.872Z,101806
2018-03-21T17:03:24.013Z,101807
2018-03-21T17:05:53.660Z,101809
2018-03-21T17:08:21.831Z,101809
2018-03-21T17:10:49.992Z,101805
2018-03-21T17:13:18.108Z,101802
2018-03-21T17:15:46.222Z,101808
2018-03-21T17:18:15.119Z,101809
2018-03-21T17:20:43.999Z,101802
2018-03-21T17:23:13.007Z,101813
2018-03-21T17:25:41.119Z,101800
2018-03-21T17:28:09.235Z,101798
2018-03-21T17:30:38.130Z,101807
2018-03-21T17:33:07.033Z,101798
2018-03-21T17:35:35.143Z,101797
2018-03-21T17:38:03.631Z,101791
2018-03-21T17:40:31.885Z,101792
2018-03-21T17:43:00.027Z,101788
2018-03-21T17:45:28.215Z,101798
2018-03-21T17:47:56.395Z,101788
2018-03-21T17:50:24.916Z,101793
2018-03-21T17:52:53.056Z,101779
2018-03-21T17:55:21.207Z,101788
2018-03-21T17:57:49.341Z,101787
2018-03-21T18:00:17.599Z,101784
2018-03-21T18:02:45.767Z,101786
2018-03-21T18:05:13.879Z,101785
2018-03-21T18:07:42.848Z,101776
2018-03-21T18:10:11.682Z,101773
2018-03-21T18:12:39.823Z,101781
2018-03-21T18:15:08.724Z,101778
2018-03-21T18:17:37.622Z,101792
2018-03-21T18:20:05.759Z,101781
2018-03-21T18:22:33.876Z,101779
2018-03-21T18:25:02.077Z,101778
2018-03-21T18:27:31.128Z,101772
2018-03-21T18:30:00.025Z,101772
2018-03-21T18:32:28.169Z,101761
2018-03-21T18:34:56.287Z,101760
2018-03-21T18:37:24.647Z,101773
2018-03-21T18:39:52.782Z,101760
2018-03-21T18:42:20.899Z,101756
2018-03-21T18:44:49.038Z,101758
2018-03-21T18:47:17.978Z,101763
2018-03-21T18:49:46.120Z,101758
2018-03-21T18:52:14.242Z,101751
2018-03-21T18:54:42.383Z,101758
2018-03-21T18:57:10.560Z,101745
2018-03-21T18:59:38.696Z,101754
2018-03-21T19:02:07.714Z,101752
2018-03-21T19:04:36.224Z,101756
2018-03-21T19:07:04.360Z,101734
2018-03-21T19:09:32.539Z,101743
2018-03-21T19:12:00.685Z,101739
2018-03-21T19:14:29.613Z,101742
2018-03-21T19:16:57.739Z,101737
2018-03-21T19:19:25.871Z,101734
2018-03-21T19:21:54.007Z,101732
2018-03-21T19:24:22.194Z,101727
2018-03-21T19:26:50.319Z,101722
2018-03-21T19:29:18.440Z,101714
2018-03-21T19:31:46.588Z,101723
2018-03-21T19:34:15.490Z,101732
2018-03-21T19:36:43.766Z,101716
2018-03-21T19:39:11.921Z,101721
2018-03-21T19:41:40.830Z,101712
2018-03-21T19:44:08.953Z,101723
2018-03-21T19:46:37.073Z,101711
2018-03-21T19:49:05.221Z,101710
2018-03-21T19:51:34.199Z,101725
2018-03-21T19:54:02.390Z,101713
2018-03-21T19:56:30.492Z,101712
2018-03-21T19:58:59.313Z,101713
2018-03-21T20:01:27.449Z,101712
2018-03-21T20:03:55.604Z,101707
2018-03-21T20:06:23.729Z,101700
2018-03-21T20:08:51.974Z,101708
2018-03-21T20:11:20.146Z,101703
2018-03-21T20:13:48.323Z,101705
2018-03-21T20:16:16.696Z,101708
2018-03-21T20:18:44.827Z,101692
2018-03-21T20:21:12.973Z,101699
2018-03-21T20:23:41.225Z,101685
2018-03-21T20:26:09.350Z,101684
2018-03-21T20:28:38.240Z,101685
2018-03-21T20:31:07.235Z,101678
2018-03-21T20:33:35.341Z,101682
2018-03-21T20:36:03.522Z,101682
2018-03-21T20:38:31.653Z,101678
2018-03-21T20:41:00.546Z,101686
2018-03-21T20:43:29.460Z,101676
2018-03-21T20:45:57.638Z,101661
2018-03-21T20:48:25.941Z,101679
2018-03-21T20:50:54.090Z,101673
2018-03-21T20:53:22.222Z,101662
2018-03-21T20:55:51.155Z,101663
2018-03-21T20:58:19.780Z,101667
2018-03-21T21:00:47.909Z,101675
2018-03-21T21:03:16.100Z,101666
2018-03-21T21:05:44.248Z,101660
2018-03-21T21:08:12.364Z,101662
2018-03-21T21:10:40.512Z,101665
2018-03-21T21:13:08.640Z,101648
2018-03-21T21:15:37.552Z,101651
2018-03-21T21:18:05.829Z,101656
2018-03-21T21:20:34.001Z,101643
2018-03-21T21:23:02.111Z,101642
2018-03-21T21:25:31.055Z,101647
2018-03-21T21:27:59.237Z,101657
2018-03-21T21:30:27.364Z,101635
2018-03-21T21:32:55.518Z,101642
2018-03-21T21:35:23.659Z,101636
2018-03-21T21:37:51.775Z,101628
2018-03-21T21:40:19.904Z,101619
2018-03-21T21:42:48.045Z,101627
2018-03-21T21:45:16.981Z,101633
2018-03-21T21:47:45.967Z,101625
2018-03-21T21:50:14.096Z,101625
2018-03-21T21:52:43.008Z,101624
2018-03-21T21:55:11.136Z,101617
2018-03-21T21:57:39.276Z,101616
2018-03-21T22:00:07.420Z,101618
2018-03-21T22:02:35.560Z,101600
2018-03-21T22:05:03.682Z,101600
2018-03-21T22:07:31.823Z,101596
2018-03-21T22:10:00.744Z,101590
2018-03-21T22:12:28.899Z,101599
2018-03-21T22:14:57.014Z,101592
2018-03-21T22:17:25.153Z,101585
2018-03-21T22:19:53.278Z,101590
2018-03-21T22:22:21.418Z,101585
2018-03-21T22:24:49.540Z,101589
2018-03-21T22:27:18.438Z,101584
2018-03-21T22:29:47.803Z,101579
2018-03-21T22:32:15.935Z,101574
2018-03-21T22:34:44.078Z,101573
2018-03-21T22:37:12.972Z,101564
2018-03-21T22:39:41.882Z,101560
2018-03-21T22:42:10.002Z,101562
2018-03-21T22:44:38.117Z,101560
2018-03-21T22:47:06.298Z,101549
2018-03-21T22:49:35.230Z,101550
2018-03-21T22:52:03.367Z,101554
2018-03-21T22:54:31.494Z,101542
2018-03-21T22:57:00.418Z,101543
2018-03-21T22:59:28.535Z,101547
2018-03-21T23:01:56.655Z,101542
2018-03-21T23:04:24.793Z,101545
2018-03-21T23:06:52.910Z,101541
2018-03-21T23:09:21.023Z,101538
2018-03-21T23:11:49.172Z,101533
2018-03-21T23:14:17.389Z,101527
2018-03-21T23:16:45.528Z,101535
2018-03-21T23:19:13.643Z,101527
2018-03-21T23:21:42.668Z,101525
2018-03-21T23:24:10.789Z,101525
2018-03-21T23:26:38.912Z,101511
2018-03-21T23:29:07.051Z,101513
2018-03-21T23:31:35.939Z,101516
2018-03-21T23:34:04.862Z,101507
2018-03-21T23:36:33.032Z,101500
2018-03-21T23:39:01.212Z,101499
2018-03-21T23:41:29.355Z,101500
2018-03-21T23:43:58.240Z,101496
2018-03-21T23:46:27.503Z,101486
2018-03-21T23:48:55.621Z,101490
2018-03-21T23:51:23.810Z,101482
2018-03-21T23:53:51.990Z,101474
2018-03-21T23:56:20.864Z,101483
2018-03-21T23:58:49.022Z,101483
